Terminal Aerodrome Forecast
Issued by NWS Greer, SC

Home | Current Version | Previous Version | Text Only | Print | Product List | Glossary On
Versions: 1 2 3 4 5 6 7 8 9 10 11 12 13
000
FTUS42 KGSP 031131
TAFGSP
TAF
KGSP 031131Z 0312/0412 02004KT P6SM BKN150
     FM031500 02006KT P6SM FEW070 BKN200
     FM040000 01003KT P6SM SCT080 BKN250=

USA.gov is the U.S. government's official web portal to all federal, state and local government web resources and services.